ENVA/TRD METAR and TAF weather

Enter ICAO airport designator
Station Type Date Time Source
ENVA METAR 2020/12/06 01:20 UTC NOAA

ENVA 060120Z VRB03KT CAVOK M02/M04 Q1009 RMK WIND 670FT 13005KT


Station Type Date Time Source
ENVA Decoded METAR 2020/12/06 01:20 UTC NOAA

Trondheim / Vaernes, Norway (ENVA) 63-28N 010-56E 17M
Dec 05, 2020 - 08:20 PM EST / 2020.12.06 0120 UTC
Wind: Variable at 3 MPH (3 KT):0
Visibility: greater than 7 mile(s):0
Temperature: 28 F (-2 C)
Dew Point: 24 F (-4 C)
Relative Humidity: 86%
Pressure (altimeter): 29.80 in. Hg (1009 hPa)
ob: ENVA 060120Z VRB03KT CAVOK M02/M04 Q1009 RMK WIND 670FT 13005KT
cycle: 1

Station Type Date Time Source
ENVA TAF 2020/12/05 18:57 UTC NOAA

TAF ENVA 051700Z 0518/0618 09005KT CAVOK PROB30
TEMPO 0606/0612 17015G25KT

Example: see airport list